Time;durP1;ratioP1;P1;durP2;ratioP2;P2;SDS_P1;SDS_P2;PMS_P1;PMS_P2;Temp;Humidity;BMP_temperature;BMP_pressure;BME280_temperature;BME280_humidity;BME280_pressure;Samples;Min_cycle;Max_cycle;Signal;HPM_P1;HPM_P2
2022/04/22 00:01:23;;;;;;;11.13;4.25;;;;;;;8.18;100.00;101329.16;10142593;28;20108;-61
2022/04/22 00:06:20;;;;;;;11.23;4.20;;;;;;;8.10;100.00;101323.53;10151899;28;20050;-62
2022/04/22 00:11:32;;;;;;;6.78;3.83;;;;;;;8.07;100.00;101324.91;10135013;28;20084;-62
2022/04/22 00:16:33;;;;;;;9.25;3.92;;;;;;;8.04;100.00;101319.25;10147041;28;20493;-63
2022/04/22 00:21:30;;;;;;;10.73;4.30;;;;;;;7.98;100.00;101323.91;10141049;28;20054;-62
2022/04/22 00:26:26;;;;;;;9.15;4.50;;;;;;;7.95;100.00;101313.59;10142048;28;20074;-62
2022/04/22 00:31:23;;;;;;;11.43;3.88;;;;;;;7.87;100.00;101314.22;10128759;28;20070;-63
2022/04/22 00:36:19;;;;;;;10.75;4.05;;;;;;;7.74;100.00;101305.56;10157870;28;20042;-63
2022/04/22 00:41:16;;;;;;;9.48;4.15;;;;;;;7.76;100.00;101306.09;10146144;28;20081;-62
2022/04/22 00:46:13;;;;;;;7.90;3.42;;;;;;;7.77;100.00;101307.75;10134323;28;20097;-63
2022/04/22 00:51:10;;;;;;;8.27;3.25;;;;;;;7.69;100.00;101305.63;10120712;28;20055;-62
2022/04/22 00:56:10;;;;;;;8.43;3.05;;;;;;;7.77;100.00;101299.59;10148345;28;20559;-62
2022/04/22 01:01:08;;;;;;;8.55;3.17;;;;;;;7.71;100.00;101292.53;10129368;28;20051;-62
2022/04/22 01:11:20;;;;;;;10.15;3.60;;;;;;;7.61;100.00;101281.72;10145995;28;20078;-61
2022/04/22 01:16:17;;;;;;;9.70;3.75;;;;;;;7.64;100.00;101280.38;10124221;28;20047;-61
2022/04/22 01:21:13;;;;;;;9.55;3.42;;;;;;;7.60;100.00;101274.66;10131328;28;20456;-61
2022/04/22 01:26:11;;;;;;;9.30;3.53;;;;;;;7.58;100.00;101277.66;10143493;28;20054;-61
2022/04/22 01:31:07;;;;;;;13.18;3.60;;;;;;;7.54;100.00;101275.78;10145098;28;20050;-62
2022/04/22 01:36:04;;;;;;;9.02;3.95;;;;;;;7.46;100.00;101268.25;10142630;28;20054;-62
2022/04/22 01:41:01;;;;;;;11.88;3.97;;;;;;;7.42;100.00;101267.19;10149338;28;20050;-62
2022/04/22 01:45:58;;;;;;;10.10;3.97;;;;;;;7.38;100.00;101265.03;10132581;28;20075;-63
2022/04/22 01:50:54;;;;;;;7.35;3.55;;;;;;;7.30;100.00;101265.63;10125053;28;20046;-63
2022/04/22 01:55:51;;;;;;;10.60;4.22;;;;;;;7.33;100.00;101265.06;10133693;28;20116;-62
2022/04/22 02:00:47;;;;;;;8.30;4.75;;;;;;;7.32;100.00;101258.00;10132611;28;20129;-61
2022/04/22 02:05:44;;;;;;;11.73;5.55;;;;;;;7.29;100.00;101255.03;10128369;28;20053;-62
2022/04/22 02:10:43;;;;;;;9.95;4.30;;;;;;;7.29;100.00;101247.69;10132235;28;20077;-61
2022/04/22 02:15:39;;;;;;;9.20;4.38;;;;;;;7.29;100.00;101244.97;10118729;28;20087;-61
2022/04/22 02:20:36;;;;;;;9.20;4.20;;;;;;;7.28;100.00;101246.03;10132075;28;20125;-61
2022/04/22 02:25:32;;;;;;;11.38;3.90;;;;;;;7.23;100.00;101231.69;10143612;28;20133;-62
2022/04/22 02:30:29;;;;;;;11.43;4.70;;;;;;;7.23;100.00;101227.06;10131211;28;20096;-62
2022/04/22 02:35:25;;;;;;;11.07;3.55;;;;;;;7.21;100.00;101234.69;10140543;28;20054;-62
2022/04/22 02:45:37;;;;;;;9.68;3.75;;;;;;;7.15;100.00;101224.94;10142334;28;20049;-62
2022/04/22 02:50:33;;;;;;;9.57;3.58;;;;;;;7.09;100.00;101226.06;10154305;28;20078;-63
2022/04/22 02:55:30;;;;;;;10.63;3.60;;;;;;;6.93;100.00;101225.34;10133143;28;20136;-62
2022/04/22 03:00:26;;;;;;;9.60;3.20;;;;;;;7.01;100.00;101223.94;10129726;28;20497;-63
2022/04/22 03:05:23;;;;;;;9.15;3.42;;;;;;;6.97;100.00;101220.97;10140350;28;20513;-62
2022/04/22 03:10:19;;;;;;;9.98;4.32;;;;;;;6.93;100.00;101217.97;10144440;28;20574;-62
2022/04/22 03:15:16;;;;;;;7.55;3.10;;;;;;;6.94;100.00;101221.53;10146515;28;20042;-62
2022/04/22 03:20:13;;;;;;;8.38;3.47;;;;;;;6.86;100.00;101212.06;10148826;28;20109;-62
2022/04/22 03:25:10;;;;;;;8.82;3.20;;;;;;;6.82;100.00;101200.09;10147419;28;20096;-62
2022/04/22 03:30:07;;;;;;;7.50;2.85;;;;;;;6.78;100.00;101193.63;10128892;28;20082;-62
2022/04/22 03:35:05;;;;;;;9.93;3.55;;;;;;;6.85;100.00;101194.13;10160654;28;20051;-63
2022/04/22 03:40:05;;;;;;;9.55;3.97;;;;;;;6.80;100.00;101186.00;10126365;28;20051;-62
2022/04/22 03:45:03;;;;;;;7.38;2.95;;;;;;;6.80;100.00;101186.00;10132663;28;20086;-63
2022/04/22 03:49:59;;;;;;;7.43;3.10;;;;;;;6.71;100.00;101176.81;10122673;28;20512;-62
2022/04/22 03:54:56;;;;;;;8.00;3.28;;;;;;;6.76;100.00;101176.78;10121280;28;20046;-62
2022/04/22 03:59:54;;;;;;;9.80;3.60;;;;;;;6.77;100.00;101172.97;10112469;28;20051;-62
2022/04/22 04:04:51;;;;;;;7.60;3.30;;;;;;;6.73;100.00;101169.22;10127605;28;20401;-62
2022/04/22 04:25:33;;;;;;;12.00;4.28;;;;;;;6.75;100.00;101161.56;10124141;28;20482;-62
2022/04/22 04:30:30;;;;;;;9.40;3.80;;;;;;;6.73;100.00;101152.91;10130287;28;20057;-62
2022/04/22 04:35:27;;;;;;;12.50;5.45;;;;;;;6.71;100.00;101165.97;10124914;28;20838;-61
2022/04/22 04:40:23;;;;;;;12.23;4.45;;;;;;;6.76;100.00;101159.69;10133385;28;20065;-61
2022/04/22 04:45:20;;;;;;;11.70;4.53;;;;;;;6.77;100.00;101164.81;10140856;28;20109;-61
2022/04/22 04:50:17;;;;;;;13.98;5.00;;;;;;;6.86;100.00;101160.41;10141607;28;20081;-62
2022/04/22 04:55:14;;;;;;;6.30;2.67;;;;;;;6.99;100.00;101160.88;10129626;28;20547;-62
2022/04/22 05:00:11;;;;;;;12.15;4.93;;;;;;;7.05;100.00;101154.31;10122453;28;20511;-62
2022/04/22 05:05:09;;;;;;;12.40;4.75;;;;;;;7.00;100.00;101151.63;10119475;28;20042;-63
2022/04/22 05:10:06;;;;;;;11.35;4.70;;;;;;;7.05;100.00;101148.88;10125981;28;20583;-63
2022/04/22 05:15:03;;;;;;;10.68;5.00;;;;;;;7.04;100.00;101147.25;10122511;28;20609;-62
2022/04/22 05:20:00;;;;;;;10.70;4.72;;;;;;;7.12;100.00;101142.00;10126126;28;20133;-62
2022/04/22 05:24:57;;;;;;;11.43;4.85;;;;;;;7.21;100.00;101142.22;10129102;28;20685;-62
2022/04/22 05:35:09;;;;;;;13.50;4.82;;;;;;;7.32;100.00;101132.88;10132428;28;20054;-61
2022/04/22 05:40:06;;;;;;;11.07;3.85;;;;;;;7.43;100.00;101138.22;10126860;28;20496;-62
2022/04/22 05:45:07;;;;;;;10.95;4.32;;;;;;;7.53;100.00;101138.13;10121297;28;20569;-61
2022/04/22 05:50:05;;;;;;;10.18;4.45;;;;;;;7.59;100.00;101140.50;10116744;28;20039;-61
2022/04/22 05:55:04;;;;;;;8.57;3.08;;;;;;;7.66;100.00;101132.00;10118106;28;20051;-62
2022/04/22 06:00:04;;;;;;;8.13;3.80;;;;;;;7.74;100.00;101139.53;10123078;28;20050;-61
2022/04/22 06:05:00;;;;;;;8.27;3.67;;;;;;;7.83;100.00;101131.56;10120291;28;20101;-61
2022/04/22 06:15:12;;;;;;;9.30;3.25;;;;;;;7.94;100.00;101143.16;10122506;28;20496;-61
2022/04/22 06:20:10;;;;;;;7.07;2.72;;;;;;;8.03;100.00;101135.97;10129840;28;20472;-61
2022/04/22 06:25:09;;;;;;;11.68;3.63;;;;;;;8.05;100.00;101138.38;10126939;28;20042;-61
2022/04/22 06:30:10;;;;;;;14.82;3.55;;;;;;;8.16;100.00;101143.41;10125913;28;20424;-62
2022/04/22 06:35:08;;;;;;;7.97;3.10;;;;;;;8.29;100.00;101143.84;10117748;28;20050;-62
2022/04/22 06:50:43;;;;;;;9.52;2.95;;;;;;;8.46;100.00;101122.38;10116216;28;20043;-62
2022/04/22 06:55:45;;;;;;;10.32;3.00;;;;;;;8.60;100.00;101111.53;10109643;28;20082;-62
2022/04/22 07:00:42;;;;;;;8.50;2.97;;;;;;;8.72;100.00;101111.91;10111464;28;20067;-62
2022/04/22 07:05:41;;;;;;;11.57;3.63;;;;;;;8.82;100.00;101108.22;10119943;28;20104;-62
2022/04/22 07:10:37;;;;;;;9.98;2.00;;;;;;;8.92;100.00;101113.50;10116589;28;20080;-62
2022/04/22 07:15:34;;;;;;;10.35;2.90;;;;;;;9.11;100.00;101110.75;10124553;28;20043;-62
2022/04/22 07:20:31;;;;;;;8.27;2.53;;;;;;;9.16;100.00;101101.66;10117143;28;20101;-63
2022/04/22 07:25:28;;;;;;;10.35;2.53;;;;;;;9.23;100.00;101104.81;10117168;28;20517;-61
2022/04/22 07:30:25;;;;;;;4.53;1.45;;;;;;;9.52;100.00;101095.59;10116112;28;20458;-61
2022/04/22 07:35:22;;;;;;;8.65;2.35;;;;;;;9.68;100.00;101105.13;10122947;28;20106;-61
2022/04/22 07:40:20;;;;;;;7.45;2.83;;;;;;;9.81;100.00;101117.94;10128143;28;20054;-61
2022/04/22 07:50:55;;;;;;;;;;;;;;;10.03;100.00;101124.66;10119127;28;20038;-61
2022/04/22 07:55:51;;;;;;;8.20;2.40;;;;;;;10.17;100.00;101119.19;10118368;28;19930;-61
2022/04/22 08:00:48;;;;;;;6.43;1.90;;;;;;;10.28;100.00;101110.50;10147076;28;20798;-61
2022/04/22 08:05:45;;;;;;;7.55;2.58;;;;;;;10.47;100.00;101106.81;10121988;28;20050;-60
2022/04/22 08:10:42;;;;;;;6.10;2.22;;;;;;;10.61;100.00;101107.56;10111762;28;20125;-61
2022/04/22 08:15:38;;;;;;;6.55;2.40;;;;;;;10.73;100.00;101099.63;10103212;28;20101;-61
2022/04/22 08:20:36;;;;;;;5.68;2.40;;;;;;;10.94;100.00;101110.09;10105786;28;20053;-62
2022/04/22 08:25:32;;;;;;;5.45;2.05;;;;;;;11.10;100.00;101103.13;10111282;28;20042;-61
2022/04/22 08:30:29;;;;;;;8.05;2.30;;;;;;;11.34;100.00;101107.44;10104691;28;20698;-62
2022/04/22 08:35:26;;;;;;;9.30;2.58;;;;;;;11.50;100.00;101103.19;10103935;28;20061;-61
2022/04/22 08:40:22;;;;;;;8.35;3.63;;;;;;;11.64;100.00;101105.03;10104269;28;20129;-61
2022/04/22 08:45:25;;;;;;;5.97;2.30;;;;;;;11.75;100.00;101101.69;10112521;28;20047;-61
2022/04/22 08:50:25;;;;;;;13.20;2.63;;;;;;;11.93;100.00;101105.34;10112007;28;20089;-61
2022/04/22 08:55:26;;;;;;;11.88;3.33;;;;;;;12.20;100.00;101100.72;10108555;28;20505;-63
2022/04/22 09:00:26;;;;;;;10.90;3.10;;;;;;;12.36;100.00;101110.09;10106040;28;20432;-62
2022/04/22 09:05:26;;;;;;;7.10;2.63;;;;;;;12.53;100.00;101109.34;10110948;28;20047;-62
2022/04/22 09:10:23;;;;;;;7.82;2.65;;;;;;;12.64;100.00;101115.31;10117068;28;20508;-62
2022/04/22 09:15:24;;;;;;;7.47;3.08;;;;;;;12.81;100.00;101109.00;10117793;28;20082;-63
2022/04/22 09:20:21;;;;;;;7.55;2.85;;;;;;;12.89;100.00;101115.63;10119667;28;20105;-63
2022/04/22 09:25:30;;;;;;;8.95;2.97;;;;;;;13.13;100.00;101117.88;10120030;28;20046;-63
2022/04/22 09:30:27;;;;;;;9.68;3.10;;;;;;;13.38;100.00;101105.25;10124450;28;20124;-62
2022/04/22 09:35:28;;;;;;;13.73;3.58;;;;;;;13.55;100.00;101093.41;10124514;28;20050;-62
2022/04/22 09:45:40;;;;;;;9.63;3.08;;;;;;;13.78;100.00;101091.22;10116383;28;20080;-63
2022/04/22 09:50:55;;;;;;;10.43;3.00;;;;;;;13.98;100.00;101084.97;10107936;28;20482;-63
2022/04/22 09:55:53;;;;;;;11.30;3.47;;;;;;;14.06;100.00;101091.53;10115236;28;20050;-62
2022/04/22 10:01:00;;;;;;;7.93;3.28;;;;;;;14.07;100.00;101093.97;10114129;28;20065;-62
2022/04/22 10:05:58;;;;;;;9.23;3.10;;;;;;;14.33;100.00;101082.00;10120473;28;20157;-63
2022/04/22 10:10:59;;;;;;;9.13;3.63;;;;;;;14.77;100.00;101093.50;10116351;28;20066;-63
2022/04/22 10:15:56;;;;;;;6.35;2.60;;;;;;;15.63;95.07;101093.75;10120832;28;20061;-63
2022/04/22 10:20:54;;;;;;;9.38;3.22;;;;;;;15.32;97.28;101103.34;10131797;28;20046;-62
2022/04/22 10:25:50;;;;;;;11.85;3.22;;;;;;;15.02;98.90;101099.13;10120942;28;20552;-62
2022/04/22 10:30:49;;;;;;;14.23;3.25;;;;;;;14.71;99.92;101097.59;10118734;28;20078;-62
2022/04/22 10:35:47;;;;;;;10.35;3.67;;;;;;;14.59;100.00;101086.53;10114816;28;20764;-62
2022/04/22 10:40:47;;;;;;;8.50;3.42;;;;;;;14.33;94.60;101079.25;10129427;28;20133;-62
2022/04/22 10:51:03;;;;;;;9.75;3.78;;;;;;;14.05;100.00;101092.69;10115699;28;20050;-63
2022/04/22 10:56:28;;;;;;;7.65;3.03;;;;;;;14.31;100.00;101103.53;10136855;28;20169;-63
2022/04/22 11:01:33;;;;;;;8.70;2.83;;;;;;;14.40;98.03;101095.22;10125933;28;20426;-62
2022/04/22 11:06:34;;;;;;;9.35;2.88;;;;;;;14.26;100.00;101106.47;10132724;28;20042;-62
2022/04/22 11:11:40;;;;;;;9.27;3.08;;;;;;;14.12;100.00;101092.19;10129080;28;20532;-62
2022/04/22 11:16:36;;;;;;;9.25;3.55;;;;;;;14.03;100.00;101093.00;10124635;28;20520;-62
2022/04/22 11:21:33;;;;;;;8.77;3.97;;;;;;;14.08;100.00;101090.06;10125775;28;20142;-62
2022/04/22 11:26:29;;;;;;;9.40;3.80;;;;;;;14.05;97.36;101087.19;10135791;28;20034;-62
2022/04/22 11:31:28;;;;;;;8.02;4.00;;;;;;;14.11;100.00;101094.13;10136211;28;20042;-62
2022/04/22 11:36:25;;;;;;;11.32;3.40;;;;;;;14.20;100.00;101092.13;10133282;28;20043;-62
2022/04/22 11:41:22;;;;;;;8.68;3.85;;;;;;;14.51;100.00;101086.22;10146591;28;20093;-62
2022/04/22 11:46:19;;;;;;;7.80;3.50;;;;;;;15.19;97.09;101082.41;10127409;28;20046;-63
2022/04/22 11:51:19;;;;;;;6.20;3.05;;;;;;;15.66;100.00;101084.78;10112157;28;20050;-62
2022/04/22 11:56:17;;;;;;;9.90;3.53;;;;;;;16.05;100.00;101077.00;10118743;28;20075;-63
2022/04/22 12:06:30;;;;;;;8.80;3.67;;;;;;;16.90;97.89;101064.16;10115679;28;20101;-63
2022/04/22 12:11:27;;;;;;;9.45;3.42;;;;;;;18.22;86.14;101058.38;10121883;28;20051;-63
2022/04/22 12:16:27;;;;;;;13.05;3.58;;;;;;;18.82;82.80;101060.03;10137409;28;20047;-63
2022/04/22 12:21:24;;;;;;;7.55;2.60;;;;;;;20.11;70.29;101056.69;10130003;28;20090;-63
2022/04/22 12:26:25;;;;;;;7.13;2.47;;;;;;;21.54;68.28;101058.38;10120853;28;20054;-63
2022/04/22 12:31:22;;;;;;;7.28;3.00;;;;;;;22.73;57.42;101047.94;10120527;28;20062;-63
2022/04/22 12:36:18;;;;;;;8.82;3.28;;;;;;;22.06;55.26;101039.66;10119942;28;20487;-63
2022/04/22 12:41:25;;;;;;;9.95;3.47;;;;;;;21.03;57.51;101039.59;10121303;28;20132;-63
2022/04/22 12:56:57;;;;;;;13.50;4.47;;;;;;;19.71;68.95;101017.25;10123734;28;20125;-63
2022/04/22 13:01:53;;;;;;;9.13;3.53;;;;;;;19.70;70.13;101009.31;10124760;28;20563;-63
2022/04/22 13:06:50;;;;;;;6.70;2.85;;;;;;;20.12;64.66;101011.09;10116192;28;20129;-63
2022/04/22 13:11:51;;;;;;;9.15;3.30;;;;;;;19.94;68.42;101008.88;10141150;28;20137;-63
2022/04/22 13:16:47;;;;;;;9.23;3.10;;;;;;;19.71;70.49;101010.91;10118124;28;20903;-63
2022/04/22 13:21:44;;;;;;;7.35;2.67;;;;;;;19.51;68.87;101012.94;10126664;28;20078;-64
2022/04/22 13:26:40;;;;;;;9.98;3.20;;;;;;;19.67;67.52;101021.13;10127866;28;20150;-63
2022/04/22 13:31:37;;;;;;;8.98;3.10;;;;;;;19.68;65.16;101018.03;10114063;28;20058;-63
2022/04/22 13:36:37;;;;;;;7.70;2.85;;;;;;;19.95;68.36;100999.38;10117152;28;20043;-63
2022/04/22 13:41:33;;;;;;;6.88;2.42;;;;;;;20.56;58.92;100991.03;10116504;28;20074;-64
2022/04/22 13:57:01;;;;;;;8.80;2.88;;;;;;;19.55;62.57;100980.53;10125684;28;20078;-64
2022/04/22 14:01:57;;;;;;;11.38;3.65;;;;;;;19.23;67.80;100980.03;10134497;28;20086;-64
2022/04/22 14:06:54;;;;;;;7.63;2.35;;;;;;;19.24;71.64;100993.50;10116614;28;20075;-65
2022/04/22 14:11:51;;;;;;;9.23;3.10;;;;;;;19.04;72.69;100984.44;10114721;28;20136;-65
2022/04/22 14:16:49;;;;;;;8.25;3.13;;;;;;;18.70;76.01;100987.00;10125853;28;20075;-64
2022/04/22 14:21:46;;;;;;;10.38;2.97;;;;;;;18.28;80.50;100981.38;10149336;28;20463;-64
2022/04/22 14:26:43;;;;;;;8.63;3.42;;;;;;;17.97;84.08;100979.56;10133410;28;20574;-64
2022/04/22 14:31:59;;;;;;;10.75;3.85;;;;;;;17.90;86.14;100976.63;10146605;28;20397;-64
2022/04/22 14:36:57;;;;;;;10.93;3.53;;;;;;;17.55;88.02;100972.66;10147267;28;20513;-64
2022/04/22 14:41:54;;;;;;;8.50;3.22;;;;;;;17.46;90.07;100975.59;10119570;28;20576;-65
2022/04/22 14:46:50;;;;;;;9.07;3.97;;;;;;;17.41;90.12;100969.56;10140696;28;20142;-64
2022/04/22 14:51:50;;;;;;;12.65;4.00;;;;;;;17.63;90.52;100957.81;10135086;28;20659;-64
2022/04/22 14:56:47;;;;;;;9.15;4.00;;;;;;;17.71;90.14;100958.81;10131037;28;20085;-64
2022/04/22 15:01:43;;;;;;;8.63;4.25;;;;;;;17.69;89.42;100947.31;10114874;28;20133;-64
2022/04/22 15:06:40;;;;;;;11.32;4.10;;;;;;;17.85;89.92;100950.84;10113879;28;20043;-65
2022/04/22 15:11:36;;;;;;;13.32;4.65;;;;;;;17.63;88.79;100946.75;10114999;28;20085;-64
2022/04/22 15:16:33;;;;;;;9.45;3.00;;;;;;;17.52;92.07;100939.38;10117567;28;20308;-64
2022/04/22 15:26:45;;;;;;;9.27;2.80;;;;;;;18.10;87.12;100939.50;10119883;28;20532;-65
2022/04/22 15:31:42;;;;;;;9.52;2.33;;;;;;;18.32;86.36;100937.19;10107834;28;20146;-66
2022/04/22 15:36:39;;;;;;;8.90;3.38;;;;;;;18.27;86.50;100941.84;10118444;28;20054;-66
2022/04/22 15:41:35;;;;;;;8.38;3.30;;;;;;;17.72;85.15;100935.50;10118532;28;20557;-65
2022/04/22 15:46:32;;;;;;;11.75;3.22;;;;;;;17.24;87.24;100934.78;10112431;28;20148;-64
2022/04/22 15:51:31;;;;;;;7.22;2.53;;;;;;;17.28;95.07;100935.69;10111196;28;20050;-65
2022/04/22 15:56:33;;;;;;;10.93;3.72;;;;;;;17.14;89.26;100936.13;10145155;28;20535;-65
2022/04/22 16:01:41;;;;;;;9.13;2.72;;;;;;;16.97;93.43;100926.25;10117213;28;20125;-65
2022/04/22 16:06:42;;;;;;;9.63;3.55;;;;;;;16.90;95.88;100936.31;10114254;28;20128;-65
2022/04/22 16:17:00;;;;;;;9.73;3.15;;;;;;;16.68;100.00;100935.72;10115377;28;20065;-65
2022/04/22 16:22:02;;;;;;;13.02;3.22;;;;;;;16.55;99.79;100937.75;10112481;28;20077;-65
2022/04/22 16:27:00;;;;;;;8.85;3.17;;;;;;;16.56;100.00;100944.06;10127367;28;20128;-65
2022/04/22 16:31:56;;;;;;;7.88;3.03;;;;;;;16.40;100.00;100942.06;10126657;28;20057;-65
2022/04/22 16:36:57;;;;;;;14.05;4.13;;;;;;;16.46;98.67;100944.59;10130497;28;20517;-65
2022/04/22 16:41:54;;;;;;;11.80;3.33;;;;;;;16.36;100.00;100937.59;10127356;28;20153;-65
2022/04/22 16:46:50;;;;;;;9.00;2.58;;;;;;;16.04;100.00;100934.75;10115388;28;20085;-65
2022/04/22 16:51:48;;;;;;;13.38;4.03;;;;;;;15.77;100.00;100948.13;10127448;28;20069;-66
2022/04/22 16:56:45;;;;;;;11.13;3.33;;;;;;;15.66;100.00;100958.00;10123197;28;20062;-65
2022/04/22 17:01:42;;;;;;;10.65;3.03;;;;;;;15.54;100.00;100961.56;10111121;28;20222;-66
2022/04/22 17:06:41;;;;;;;9.32;2.83;;;;;;;15.42;100.00;100958.03;10128823;28;20556;-66
2022/04/22 17:11:37;;;;;;;14.60;3.35;;;;;;;15.44;100.00;100969.50;10127783;28;20045;-67
2022/04/22 17:27:07;;;;;;;12.20;3.75;;;;;;;15.11;100.00;100976.72;10121753;28;20767;-66
2022/04/22 17:32:04;;;;;;;11.25;3.40;;;;;;;15.11;100.00;100981.44;10120370;28;20047;-66
2022/04/22 17:37:04;;;;;;;10.30;3.80;;;;;;;14.85;100.00;100981.69;10119664;28;20070;-66
2022/04/22 17:42:00;;;;;;;11.15;3.58;;;;;;;14.50;100.00;100985.59;10108294;28;20129;-65
2022/04/22 17:46:57;;;;;;;7.85;3.28;;;;;;;14.60;100.00;100995.41;10116990;28;20078;-65
2022/04/22 17:51:54;;;;;;;14.10;4.10;;;;;;;14.55;100.00;100992.03;10115605;28;20057;-66
2022/04/22 17:56:53;;;;;;;8.95;3.40;;;;;;;14.41;100.00;100993.13;10119966;28;20062;-65
2022/04/22 18:01:50;;;;;;;10.20;3.83;;;;;;;14.47;100.00;101008.25;10117443;28;20146;-65
2022/04/22 18:06:46;;;;;;;11.18;4.05;;;;;;;14.34;100.00;101003.81;10100329;28;20146;-65
2022/04/22 18:11:43;;;;;;;15.00;4.38;;;;;;;14.18;100.00;101011.06;10108729;28;20826;-65
2022/04/22 18:16:40;;;;;;;10.13;4.00;;;;;;;14.16;100.00;101021.63;10122320;28;20077;-66
2022/04/22 18:21:36;;;;;;;16.33;3.65;;;;;;;13.85;100.00;101020.03;10125394;28;20105;-65
2022/04/22 18:26:33;;;;;;;12.00;4.05;;;;;;;13.91;100.00;101028.91;10126049;28;20074;-65
2022/04/22 18:31:30;;;;;;;11.70;4.00;;;;;;;13.75;100.00;101026.72;10124652;28;20117;-65
2022/04/22 18:36:27;;;;;;;9.75;4.20;;;;;;;13.58;100.00;101027.63;10129137;28;20061;-65
2022/04/22 18:41:25;;;;;;;12.45;4.30;;;;;;;13.48;100.00;101044.47;10141629;28;20205;-65
2022/04/22 18:46:24;;;;;;;12.55;4.38;;;;;;;13.44;100.00;101049.03;10129357;28;20085;-65
2022/04/22 18:51:20;;;;;;;9.90;3.78;;;;;;;13.29;100.00;101047.59;10145303;28;20199;-65
2022/04/22 18:56:17;;;;;;;10.77;3.47;;;;;;;13.08;100.00;101047.47;10113099;28;20086;-65
2022/04/22 19:01:20;;;;;;;13.02;4.53;;;;;;;13.08;100.00;101052.97;10121538;28;20504;-65
2022/04/22 19:06:16;;;;;;;11.90;4.43;;;;;;;12.98;100.00;101054.13;10127632;28;20081;-66
2022/04/22 19:11:14;;;;;;;12.25;4.78;;;;;;;12.92;100.00;101054.59;10145689;28;20137;-65
2022/04/22 19:16:11;;;;;;;16.05;5.50;;;;;;;12.81;100.00;101060.44;10119188;28;20094;-65
2022/04/22 19:21:07;;;;;;;14.05;4.38;;;;;;;12.88;100.00;101064.59;10115264;28;20128;-65
2022/04/22 19:26:04;;;;;;;13.02;5.03;;;;;;;12.76;100.00;101063.31;10137009;28;20509;-65
2022/04/22 19:31:01;;;;;;;16.58;5.55;;;;;;;12.54;100.00;101055.28;10112191;28;20046;-65
2022/04/22 19:40:47;;;;;;;16.35;5.70;;;;;;;12.46;100.00;101069.78;10117053;28;20735;-65
2022/04/22 19:41:14;;;;;;;16.58;4.45;;;;;;;12.57;100.00;101071.09;10118398;28;20047;-65
2022/04/22 19:46:12;;;;;;;10.75;5.20;;;;;;;12.55;100.00;101073.34;10126707;28;20728;-64
2022/04/22 19:51:08;;;;;;;14.10;5.68;;;;;;;12.46;100.00;101070.59;10122611;28;20142;-64
2022/04/22 19:56:06;;;;;;;13.15;5.45;;;;;;;12.54;100.00;101066.25;10107949;28;20070;-68
2022/04/22 20:01:03;;;;;;;14.32;5.30;;;;;;;12.42;100.00;101064.16;10139458;28;20822;-69
2022/04/22 20:06:00;;;;;;;11.05;4.80;;;;;;;12.47;100.00;101074.16;10131021;28;20046;-68
2022/04/22 20:10:57;;;;;;;12.02;4.95;;;;;;;12.55;100.00;101076.09;10102380;28;20051;-68
2022/04/22 20:15:55;;;;;;;12.68;5.15;;;;;;;12.55;100.00;101078.84;10110386;28;20046;-66
2022/04/22 20:20:54;;;;;;;16.20;5.28;;;;;;;12.54;100.00;101072.53;10121395;28;20054;-68
2022/04/22 20:25:50;;;;;;;11.75;4.28;;;;;;;12.44;100.00;101070.13;10120069;28;20077;-67
2022/04/22 20:30:47;;;;;;;11.82;4.88;;;;;;;12.53;100.00;101081.09;10113183;28;20460;-67
2022/04/22 20:41:00;;;;;;;13.85;4.75;;;;;;;12.49;100.00;101088.38;10146412;28;20058;-68
2022/04/22 20:45:57;;;;;;;10.55;4.13;;;;;;;12.43;100.00;101083.00;10142897;28;20058;-67
2022/04/22 20:50:56;;;;;;;11.85;4.68;;;;;;;12.49;100.00;101091.91;10111925;28;20054;-66
2022/04/22 20:55:52;;;;;;;12.35;4.15;;;;;;;12.48;100.00;101089.47;10122674;28;20137;-65
2022/04/22 21:00:49;;;;;;;9.60;3.88;;;;;;;12.52;100.00;101098.69;10150062;28;20085;-68
2022/04/22 21:05:47;;;;;;;9.10;4.40;;;;;;;12.40;100.00;101089.16;10112146;28;20481;-67
2022/04/22 21:10:44;;;;;;;10.55;4.35;;;;;;;12.32;100.00;101087.22;10111773;28;20501;-67
2022/04/22 21:15:41;;;;;;;9.48;4.03;;;;;;;12.45;100.00;101090.13;10115219;28;20054;-66
2022/04/22 21:20:38;;;;;;;9.27;4.47;;;;;;;12.43;100.00;101093.97;10126713;28;20058;-66
2022/04/22 21:25:34;;;;;;;10.07;4.32;;;;;;;12.41;100.00;101093.50;10109966;28;20520;-66
2022/04/22 21:30:31;;;;;;;8.82;3.83;;;;;;;12.43;100.00;101099.47;10111215;28;20082;-65
2022/04/22 21:35:30;;;;;;;10.05;3.45;;;;;;;12.45;100.00;101107.38;10109775;28;20125;-65
2022/04/22 21:40:26;;;;;;;10.20;3.65;;;;;;;12.42;100.00;101105.28;10109963;28;20043;-66
2022/04/22 21:45:23;;;;;;;8.00;3.72;;;;;;;12.20;100.00;101111.69;10112173;28;20054;-66
2022/04/22 21:50:19;;;;;;;7.65;3.65;;;;;;;12.19;100.00;101115.56;10150356;28;20556;-64
2022/04/22 21:55:16;;;;;;;6.18;3.40;;;;;;;12.13;100.00;101122.31;10118467;28;20097;-65
2022/04/22 22:00:20;;;;;;;7.70;3.70;;;;;;;11.97;100.00;101114.56;10110786;28;20055;-65
2022/04/22 22:05:20;;;;;;;9.50;4.22;;;;;;;11.88;100.00;101116.47;10113301;28;20150;-66
2022/04/22 22:10:16;;;;;;;9.60;4.00;;;;;;;11.74;100.00;101122.00;10117556;28;20078;-66
2022/04/22 22:15:13;;;;;;;5.93;2.70;;;;;;;11.76;100.00;101118.94;10117331;28;20046;-66
2022/04/22 22:20:09;;;;;;;7.05;3.30;;;;;;;11.63;100.00;101117.09;10117223;28;20089;-66
2022/04/22 22:25:06;;;;;;;8.20;3.63;;;;;;;11.52;100.00;101120.13;10116620;28;20496;-66
2022/04/22 22:30:03;;;;;;;6.22;3.53;;;;;;;11.53;100.00;101110.78;10116752;28;20070;-66
2022/04/22 22:35:00;;;;;;;6.95;3.42;;;;;;;11.37;100.00;101123.25;10117129;28;20141;-66
2022/04/22 22:39:56;;;;;;;8.73;3.30;;;;;;;11.37;100.00;101121.34;10116719;28;20141;-68
2022/04/22 22:44:53;;;;;;;9.02;4.43;;;;;;;11.18;100.00;101115.25;10115981;28;20294;-68
2022/04/22 22:49:49;;;;;;;5.22;3.25;;;;;;;11.16;100.00;101123.78;10115769;28;20572;-65
2022/04/22 22:54:46;;;;;;;7.47;2.97;;;;;;;11.08;100.00;101121.78;10116280;28;20505;-65
2022/04/22 22:59:42;;;;;;;7.40;3.83;;;;;;;11.04;100.00;101130.91;10115059;28;20116;-65
2022/04/22 23:04:39;;;;;;;6.30;3.45;;;;;;;10.97;100.00;101128.63;10127905;28;20054;-67
2022/04/22 23:09:36;;;;;;;3.95;2.47;;;;;;;10.94;100.00;101132.78;10135371;28;20077;-67
2022/04/22 23:14:32;;;;;;;8.35;3.30;;;;;;;10.91;100.00;101135.34;10115969;28;20101;-64
2022/04/22 23:19:29;;;;;;;6.60;2.92;;;;;;;10.87;100.00;101132.41;10113354;28;20076;-65
2022/04/22 23:24:26;;;;;;;6.32;3.38;;;;;;;10.80;100.00;101139.44;10115407;28;20492;-65
2022/04/22 23:29:23;;;;;;;6.90;3.15;;;;;;;10.74;100.00;101133.25;10113766;28;20047;-64
2022/04/22 23:34:19;;;;;;;5.32;3.00;;;;;;;10.73;100.00;101137.91;10115603;28;20100;-66
2022/04/22 23:39:16;;;;;;;4.70;3.00;;;;;;;10.57;100.00;101131.19;10119694;28;20074;-67
2022/04/22 23:44:16;;;;;;;6.18;3.90;;;;;;;10.53;100.00;101138.38;10114535;28;20421;-66
2022/04/22 23:49:12;;;;;;;5.30;3.47;;;;;;;10.40;100.00;101133.75;10113075;28;20074;-65
2022/04/22 23:54:08;;;;;;;7.55;3.58;;;;;;;10.23;100.00;101135.13;10113648;28;20055;-66
2022/04/22 23:59:05;;;;;;;5.93;3.05;;;;;;;10.21;100.00;101137.41;10112735;28;20531;-68
